createdAt,value
2023-05-21T00:00:48.680Z,33.74
2023-05-21T00:01:50.525Z,33.43
2023-05-21T00:02:52.554Z,34.07
2023-05-21T00:03:54.543Z,33.87
2023-05-21T00:04:56.383Z,33.64
2023-05-21T00:05:58.789Z,33.62
2023-05-21T00:07:00.927Z,33.73
2023-05-21T00:08:02.773Z,33.80
2023-05-21T00:09:06.452Z,33.71
2023-05-21T00:10:09.031Z,33.80
2023-05-21T00:11:11.163Z,33.88
2023-05-21T00:12:13.262Z,34.12
2023-05-21T00:13:15.331Z,33.53
2023-05-21T00:14:17.328Z,33.88
2023-05-21T00:15:19.356Z,33.56
2023-05-21T00:16:22.910Z,33.71
2023-05-21T00:17:26.076Z,33.76
2023-05-21T00:18:28.412Z,33.49
2023-05-21T00:19:33.633Z,34.00
2023-05-21T00:20:35.626Z,33.89
2023-05-21T00:21:38.186Z,33.57
2023-05-21T00:22:42.550Z,33.73
2023-05-21T00:23:45.518Z,33.56
2023-05-21T00:24:47.410Z,33.84
2023-05-21T00:25:50.516Z,33.56
2023-05-21T00:26:52.402Z,33.63
2023-05-21T00:27:55.589Z,33.50
2023-05-21T00:28:57.677Z,33.57
2023-05-21T00:29:59.577Z,33.85
2023-05-21T00:31:01.831Z,33.67
2023-05-21T00:32:04.288Z,33.78
2023-05-21T00:33:06.278Z,33.87
2023-05-21T00:34:08.207Z,33.63
2023-05-21T00:35:10.128Z,33.63
2023-05-21T00:36:14.430Z,33.76
2023-05-21T00:37:16.546Z,33.80
2023-05-21T00:38:18.815Z,33.58
2023-05-21T00:39:21.062Z,33.48
2023-05-21T00:40:23.047Z,33.37
2023-05-21T00:41:26.225Z,33.86
2023-05-21T00:42:30.934Z,33.58
2023-05-21T00:43:33.119Z,33.60
2023-05-21T00:44:35.534Z,33.84
2023-05-21T00:45:38.068Z,33.53
2023-05-21T00:46:40.928Z,33.46
2023-05-21T00:47:45.071Z,33.94
2023-05-21T00:48:48.714Z,33.52
2023-05-21T00:49:54.255Z,33.74
2023-05-21T00:50:56.718Z,33.71
2023-05-21T00:52:01.633Z,33.92
2023-05-21T00:53:03.916Z,33.84
2023-05-21T00:54:06.144Z,33.38
2023-05-21T00:55:09.720Z,33.93
2023-05-21T00:56:11.826Z,33.62
2023-05-21T00:57:14.598Z,33.83
2023-05-21T00:58:18.406Z,33.77
2023-05-21T00:59:20.605Z,33.54
2023-05-21T01:00:24.720Z,33.76
2023-05-21T01:01:27.828Z,33.72
2023-05-21T01:02:33.164Z,33.68
2023-05-21T01:03:38.652Z,33.49
2023-05-21T01:04:40.762Z,33.95
2023-05-21T01:05:45.241Z,33.77
2023-05-21T01:06:47.173Z,33.64
2023-05-21T01:07:49.141Z,33.59
2023-05-21T01:08:51.111Z,33.60
2023-05-21T01:09:54.243Z,33.70
2023-05-21T01:10:58.526Z,33.59
2023-05-21T01:12:01.056Z,33.80
2023-05-21T01:13:03.220Z,33.70
2023-05-21T01:14:09.362Z,33.54
2023-05-21T01:15:12.119Z,33.74
2023-05-21T01:16:14.255Z,33.46
2023-05-21T01:17:16.951Z,33.97
2023-05-21T01:18:20.183Z,33.75
2023-05-21T01:19:24.223Z,33.83
2023-05-21T01:20:28.566Z,33.77
2023-05-21T01:21:31.071Z,33.59
2023-05-21T01:22:35.702Z,33.69
2023-05-21T01:23:37.549Z,33.71
2023-05-21T01:24:39.444Z,33.70
2023-05-21T01:25:42.345Z,33.77
2023-05-21T01:26:46.550Z,33.87
2023-05-21T01:27:49.435Z,33.45
2023-05-21T01:28:51.668Z,33.57
2023-05-21T01:29:53.697Z,33.90
2023-05-21T01:31:02.875Z,34.11
2023-05-21T01:32:34.766Z,33.68
2023-05-21T01:33:49.341Z,33.68
2023-05-21T01:35:14.472Z,33.73
2023-05-21T01:36:24.417Z,33.84
2023-05-21T01:37:40.553Z,33.67
2023-05-21T01:38:57.591Z,33.81
2023-05-21T01:40:10.696Z,33.67
2023-05-21T01:41:17.030Z,33.91
2023-05-21T01:42:23.695Z,33.90
2023-05-21T01:43:30.018Z,33.79
2023-05-21T01:44:34.337Z,33.82
2023-05-21T01:45:42.147Z,33.91
2023-05-21T01:46:44.051Z,34.02
2023-05-21T01:47:50.451Z,33.94
2023-05-21T01:48:56.305Z,33.81
2023-05-21T01:50:01.701Z,33.79
2023-05-21T01:51:06.565Z,33.72
2023-05-21T01:52:09.351Z,33.85
2023-05-21T01:53:11.580Z,33.75
2023-05-21T01:54:14.226Z,33.89
2023-05-21T01:55:16.089Z,34.10
2023-05-21T01:56:18.158Z,33.81
2023-05-21T01:57:21.566Z,33.86
2023-05-21T01:58:24.202Z,33.68
2023-05-21T01:59:26.210Z,33.72
2023-05-21T02:00:32.599Z,33.82
2023-05-21T02:01:34.997Z,33.83
2023-05-21T02:02:37.018Z,33.81
2023-05-21T02:03:38.971Z,34.11
2023-05-21T02:04:41.491Z,33.97
2023-05-21T02:05:43.764Z,33.72
2023-05-21T02:06:45.753Z,33.87
2023-05-21T02:07:48.284Z,33.95
2023-05-21T02:08:50.269Z,33.78
2023-05-21T02:09:52.156Z,34.02
2023-05-21T02:10:54.083Z,33.85
2023-05-21T02:11:56.605Z,33.85
2023-05-21T02:12:59.339Z,33.79
2023-05-21T02:14:01.371Z,33.96
2023-05-21T02:15:03.994Z,34.01
2023-05-21T02:16:10.176Z,33.95
2023-05-21T02:17:12.037Z,33.68
2023-05-21T02:18:18.495Z,33.77
2023-05-21T02:19:20.707Z,33.83
2023-05-21T02:20:22.939Z,33.58
2023-05-21T02:21:24.787Z,33.77
2023-05-21T02:22:26.707Z,33.79
2023-05-21T02:23:28.613Z,33.59
2023-05-21T02:24:31.419Z,33.69
2023-05-21T02:25:33.933Z,33.96
2023-05-21T02:26:36.193Z,33.97
2023-05-21T02:27:40.709Z,33.70
2023-05-21T02:28:42.598Z,33.74
2023-05-21T02:29:44.593Z,33.88
2023-05-21T02:30:46.482Z,33.71
2023-05-21T02:31:48.407Z,33.89
2023-05-21T02:32:50.828Z,33.90
2023-05-21T02:33:52.884Z,33.68
2023-05-21T02:34:54.934Z,33.99
2023-05-21T02:35:56.973Z,33.76
2023-05-21T02:36:59.221Z,33.73
2023-05-21T02:38:03.175Z,33.63
2023-05-21T02:39:05.295Z,33.99
2023-05-21T02:40:10.166Z,33.76
2023-05-21T02:41:12.554Z,33.67
2023-05-21T02:42:14.522Z,33.83
2023-05-21T02:43:16.848Z,33.98
2023-05-21T02:44:19.307Z,33.81
2023-05-21T02:45:21.361Z,33.82
2023-05-21T02:46:23.312Z,33.73
2023-05-21T02:47:25.930Z,33.64
2023-05-21T02:48:28.247Z,33.78
2023-05-21T02:49:30.085Z,33.91
2023-05-21T02:50:32.105Z,33.84
2023-05-21T02:51:34.041Z,33.73
2023-05-21T02:52:35.939Z,33.66
2023-05-21T02:53:38.830Z,33.99
2023-05-21T02:54:40.968Z,33.62
2023-05-21T02:55:43.149Z,33.90
2023-05-21T02:56:45.241Z,33.56
2023-05-21T02:57:48.110Z,33.92
2023-05-21T02:58:50.006Z,33.81
2023-05-21T02:59:51.928Z,33.55
2023-05-21T03:00:53.979Z,33.73
2023-05-21T03:01:56.023Z,33.73
2023-05-21T03:02:57.874Z,34.00
2023-05-21T03:04:00.155Z,33.54
2023-05-21T03:05:02.819Z,33.90
2023-05-21T03:06:05.009Z,33.76
2023-05-21T03:07:06.928Z,33.63
2023-05-21T03:08:08.822Z,33.83
2023-05-21T03:09:10.961Z,33.90
2023-05-21T03:10:12.910Z,33.82
2023-05-21T03:11:14.920Z,33.81
2023-05-21T03:12:16.772Z,33.67
2023-05-21T03:13:18.692Z,33.68
2023-05-21T03:14:20.618Z,33.79
2023-05-21T03:15:24.459Z,33.91
2023-05-21T03:16:26.459Z,33.68
2023-05-21T03:17:28.315Z,33.64
2023-05-21T03:18:30.168Z,33.82
2023-05-21T03:19:35.885Z,34.00
2023-05-21T03:20:43.637Z,33.77
2023-05-21T03:21:45.644Z,33.68
2023-05-21T03:22:48.318Z,33.85
2023-05-21T03:23:51.702Z,33.55
2023-05-21T03:24:53.830Z,33.84
2023-05-21T03:25:55.708Z,33.73
2023-05-21T03:26:57.575Z,34.16
2023-05-21T03:27:59.702Z,33.81
2023-05-21T03:29:01.571Z,33.97
2023-05-21T03:30:06.026Z,33.91
2023-05-21T03:31:08.565Z,33.84
2023-05-21T03:32:10.772Z,33.58
2023-05-21T03:33:16.499Z,33.77
2023-05-21T03:34:20.092Z,33.75
2023-05-21T03:35:22.142Z,33.76
2023-05-21T03:36:24.000Z,33.70
2023-05-21T03:37:26.147Z,33.98
2023-05-21T03:38:28.273Z,33.77
2023-05-21T03:39:30.221Z,33.79
2023-05-21T03:40:32.066Z,33.79
2023-05-21T03:41:34.195Z,33.76
2023-05-21T03:42:36.194Z,33.70
2023-05-21T03:43:38.098Z,33.75
2023-05-21T03:44:40.046Z,33.77
2023-05-21T03:45:44.365Z,33.73
2023-05-21T03:46:46.542Z,33.80
2023-05-21T03:47:49.670Z,33.77
2023-05-21T03:48:51.808Z,33.83
2023-05-21T03:49:54.017Z,33.93
2023-05-21T03:50:56.161Z,33.79
2023-05-21T03:51:58.002Z,33.98
2023-05-21T03:52:59.954Z,33.81
2023-05-21T03:54:02.101Z,33.71
2023-05-21T03:55:04.329Z,33.92
2023-05-21T03:56:06.616Z,33.75
2023-05-21T03:57:08.565Z,33.52
2023-05-21T03:58:11.007Z,33.97
2023-05-21T03:59:12.918Z,33.64
2023-05-21T04:00:15.115Z,34.30
2023-05-21T04:01:17.835Z,33.76
2023-05-21T04:02:21.561Z,33.72
2023-05-21T04:03:23.616Z,33.59
2023-05-21T04:04:25.813Z,33.71
2023-05-21T04:05:27.733Z,33.92
2023-05-21T04:06:30.284Z,33.88
2023-05-21T04:07:32.371Z,33.76
2023-05-21T04:08:34.379Z,33.74
2023-05-21T04:09:36.839Z,33.85
2023-05-21T04:10:38.838Z,33.68
2023-05-21T04:11:40.804Z,33.68
2023-05-21T04:12:42.733Z,33.82
2023-05-21T04:13:44.658Z,33.85
2023-05-21T04:14:47.296Z,33.92
2023-05-21T04:15:49.497Z,33.77
2023-05-21T04:16:51.501Z,33.86
2023-05-21T04:17:54.671Z,33.84
2023-05-21T04:18:56.798Z,33.72
2023-05-21T04:19:59.008Z,33.83
2023-05-21T04:21:02.497Z,33.91
2023-05-21T04:22:05.211Z,33.62
2023-05-21T04:23:07.159Z,34.00
2023-05-21T04:24:08.954Z,33.76
2023-05-21T04:25:10.905Z,33.96
2023-05-21T04:26:13.189Z,34.12
2023-05-21T04:27:16.546Z,33.84
2023-05-21T04:28:21.323Z,33.95
2023-05-21T04:29:23.564Z,33.94
2023-05-21T04:30:25.639Z,33.92
2023-05-21T04:31:27.588Z,33.79
2023-05-21T04:32:31.114Z,33.54
2023-05-21T04:33:33.248Z,33.78
2023-05-21T04:34:35.168Z,33.84
2023-05-21T04:35:37.323Z,34.03
2023-05-21T04:36:39.446Z,33.91
2023-05-21T04:37:42.268Z,33.96
2023-05-21T04:38:44.410Z,33.64
2023-05-21T04:39:46.996Z,33.63
2023-05-21T04:40:52.778Z,33.91
2023-05-21T04:41:56.969Z,33.74
2023-05-21T04:43:00.787Z,33.88
2023-05-21T04:44:02.733Z,33.76
2023-05-21T04:45:05.199Z,33.99
2023-05-21T04:46:07.052Z,33.69
2023-05-21T04:47:08.952Z,33.73
2023-05-21T04:48:11.012Z,33.97
2023-05-21T04:49:12.831Z,33.76
2023-05-21T04:50:14.762Z,33.84
2023-05-21T04:51:16.686Z,33.78
2023-05-21T04:52:18.664Z,33.75
2023-05-21T04:53:21.006Z,33.74
2023-05-21T04:54:23.341Z,33.84
2023-05-21T04:55:25.923Z,33.80
2023-05-21T04:56:28.011Z,33.76
2023-05-21T04:57:29.902Z,33.87
2023-05-21T04:58:34.186Z,33.67
2023-05-21T04:59:36.325Z,33.73
2023-05-21T05:00:39.431Z,33.84
2023-05-21T05:01:43.920Z,33.78
2023-05-21T05:02:45.981Z,33.85
2023-05-21T05:03:47.918Z,33.83
2023-05-21T05:04:49.885Z,33.62
2023-05-21T05:05:51.944Z,33.72
2023-05-21T05:06:53.857Z,33.83
2023-05-21T05:07:56.267Z,33.65
2023-05-21T05:08:58.202Z,33.76
2023-05-21T05:10:00.372Z,33.67
2023-05-21T05:11:02.884Z,33.90
2023-05-21T05:12:05.723Z,33.84
2023-05-21T05:13:07.846Z,33.70
2023-05-21T05:14:09.783Z,34.18
2023-05-21T05:15:11.794Z,33.68
2023-05-21T05:16:17.361Z,33.83
2023-05-21T05:17:20.045Z,33.79
2023-05-21T05:18:21.957Z,33.50
2023-05-21T05:19:24.041Z,33.84
2023-05-21T05:20:25.955Z,33.61
2023-05-21T05:21:28.025Z,33.78
2023-05-21T05:22:29.989Z,33.83
2023-05-21T05:23:32.070Z,33.84
2023-05-21T05:24:34.052Z,33.81
2023-05-21T05:25:36.221Z,33.70
2023-05-21T05:26:38.221Z,33.70
2023-05-21T05:27:40.423Z,33.68
2023-05-21T05:28:42.229Z,33.67
2023-05-21T05:29:48.256Z,33.83
2023-05-21T05:30:50.200Z,33.71
2023-05-21T05:31:52.148Z,33.74
2023-05-21T05:32:54.043Z,33.74
2023-05-21T05:33:56.273Z,33.94
2023-05-21T05:34:59.137Z,33.52
2023-05-21T05:36:02.553Z,33.64
2023-05-21T05:37:05.349Z,33.76
2023-05-21T05:38:09.100Z,33.66
2023-05-21T05:39:11.234Z,33.86
2023-05-21T05:40:13.288Z,33.66
2023-05-21T05:41:15.278Z,33.68
2023-05-21T05:42:17.118Z,33.74
2023-05-21T05:43:19.152Z,33.74
2023-05-21T05:44:21.045Z,33.58
2023-05-21T05:45:23.055Z,33.78
2023-05-21T05:46:24.927Z,33.48
2023-05-21T05:47:26.857Z,33.84
2023-05-21T05:48:29.437Z,33.59
2023-05-21T05:49:31.301Z,33.78
2023-05-21T05:50:33.395Z,33.70
2023-05-21T05:51:35.312Z,33.64
2023-05-21T05:52:37.496Z,33.83
2023-05-21T05:53:39.652Z,33.83
2023-05-21T05:54:41.646Z,33.71
2023-05-21T05:55:43.862Z,33.70
2023-05-21T05:56:45.896Z,33.62
2023-05-21T05:57:47.962Z,33.58
2023-05-21T05:58:49.845Z,33.65
2023-05-21T05:59:51.775Z,33.71
2023-05-21T06:00:54.253Z,33.85
2023-05-21T06:01:56.135Z,33.68
2023-05-21T06:02:58.137Z,33.76
2023-05-21T06:04:00.289Z,33.73
2023-05-21T06:05:02.853Z,33.81
2023-05-21T06:06:04.810Z,33.75
2023-05-21T06:07:06.730Z,33.40
2023-05-21T06:08:08.600Z,33.75
2023-05-21T06:09:11.051Z,33.74
2023-05-21T06:10:13.040Z,33.62
2023-05-21T06:11:19.264Z,33.67
2023-05-21T06:12:21.301Z,33.67
2023-05-21T06:13:23.200Z,33.90
2023-05-21T06:14:25.010Z,33.66
2023-05-21T06:15:26.868Z,33.72
2023-05-21T06:16:31.501Z,33.86
2023-05-21T06:17:34.823Z,33.87
2023-05-21T06:18:37.530Z,33.63
2023-05-21T06:19:40.210Z,33.76
2023-05-21T06:20:42.199Z,33.99
2023-05-21T06:21:44.026Z,33.74
2023-05-21T06:22:46.011Z,33.83
2023-05-21T06:23:48.096Z,33.79
2023-05-21T06:24:50.030Z,33.43
2023-05-21T06:25:51.941Z,33.83
2023-05-21T06:26:53.826Z,33.80
2023-05-21T06:27:56.866Z,33.65
2023-05-21T06:28:59.027Z,33.64
2023-05-21T06:30:00.886Z,33.94
2023-05-21T06:31:02.834Z,33.76
2023-05-21T06:32:05.108Z,33.61
2023-05-21T06:33:07.198Z,33.81
2023-05-21T06:34:09.157Z,33.98
2023-05-21T06:35:11.547Z,33.90
2023-05-21T06:36:13.651Z,33.96
2023-05-21T06:37:21.490Z,33.88
2023-05-21T06:38:23.580Z,33.88
2023-05-21T06:39:27.093Z,33.58
2023-05-21T06:40:29.062Z,33.68
2023-05-21T06:41:31.082Z,33.87
2023-05-21T06:42:33.016Z,33.85
2023-05-21T06:43:34.990Z,33.91
2023-05-21T06:44:37.022Z,33.92
2023-05-21T06:45:39.708Z,33.72
2023-05-21T06:46:43.014Z,34.04
2023-05-21T06:47:44.975Z,33.66
2023-05-21T06:48:47.235Z,33.87
2023-05-21T06:49:49.320Z,34.04
2023-05-21T06:50:51.534Z,34.03
2023-05-21T06:51:53.425Z,33.95
2023-05-21T06:52:55.562Z,33.99
2023-05-21T06:53:57.389Z,34.08
2023-05-21T06:54:59.259Z,34.08
2023-05-21T06:56:01.363Z,34.03
2023-05-21T06:57:03.346Z,34.21
2023-05-21T06:58:06.615Z,34.08
2023-05-21T06:59:08.788Z,34.28
2023-05-21T07:00:12.181Z,34.38
2023-05-21T07:01:14.116Z,34.09
2023-05-21T07:02:17.023Z,34.14
2023-05-21T07:03:19.058Z,34.23
2023-05-21T07:04:21.034Z,34.06
2023-05-21T07:05:23.168Z,34.24
2023-05-21T07:06:25.280Z,34.37
2023-05-21T07:07:27.380Z,34.03
2023-05-21T07:08:29.588Z,34.25
2023-05-21T07:09:31.724Z,34.31
2023-05-21T07:10:33.647Z,34.31
2023-05-21T07:11:35.769Z,34.25
2023-05-21T07:12:37.627Z,34.07
2023-05-21T07:13:39.738Z,34.10
2023-05-21T07:14:41.914Z,34.16
2023-05-21T07:15:44.066Z,34.32
2023-05-21T07:16:46.018Z,34.35
2023-05-21T07:17:48.134Z,34.23
2023-05-21T07:18:50.264Z,34.13
2023-05-21T07:19:52.386Z,34.18
2023-05-21T07:20:54.236Z,34.13
2023-05-21T07:21:57.928Z,34.11
2023-05-21T07:22:59.935Z,34.31
2023-05-21T07:24:02.123Z,34.12
2023-05-21T07:25:04.954Z,34.34
2023-05-21T07:26:06.973Z,34.23
2023-05-21T07:27:24.281Z,34.50
2023-05-21T07:28:27.523Z,34.17
2023-05-21T07:29:29.345Z,34.25
2023-05-21T07:30:31.199Z,34.32
2023-05-21T07:31:33.176Z,34.48
2023-05-21T07:32:35.252Z,34.19
2023-05-21T07:33:37.184Z,34.10
2023-05-21T07:34:39.060Z,34.28
2023-05-21T07:35:41.035Z,34.20
2023-05-21T07:36:43.015Z,34.28
2023-05-21T07:37:44.949Z,34.54
2023-05-21T07:38:46.829Z,34.30
2023-05-21T07:39:48.678Z,34.46
2023-05-21T07:40:50.496Z,34.23
2023-05-21T07:41:52.424Z,34.59
2023-05-21T07:42:54.696Z,34.37
2023-05-21T07:43:56.631Z,34.11
2023-05-21T07:44:58.492Z,34.52
2023-05-21T07:46:00.538Z,34.37
2023-05-21T07:47:02.570Z,34.29
2023-05-21T07:48:04.684Z,34.49
2023-05-21T07:49:06.900Z,34.46
2023-05-21T07:50:09.519Z,34.17
2023-05-21T07:51:12.159Z,34.14
2023-05-21T07:52:14.010Z,34.10
2023-05-21T07:53:17.529Z,34.13
2023-05-21T07:54:19.783Z,34.07
2023-05-21T07:55:21.806Z,34.26
2023-05-21T07:56:23.763Z,33.97
2023-05-21T07:57:26.172Z,34.34
2023-05-21T07:58:28.138Z,34.30
2023-05-21T07:59:30.068Z,34.58
2023-05-21T08:00:47.638Z,34.56
2023-05-21T08:01:49.641Z,34.59
2023-05-21T08:02:52.572Z,34.16
2023-05-21T08:03:54.812Z,34.43
2023-05-21T08:04:57.989Z,34.04
2023-05-21T08:05:59.986Z,34.60
2023-05-21T08:07:01.958Z,34.32
2023-05-21T08:08:05.546Z,34.39
2023-05-21T08:09:08.067Z,34.42
2023-05-21T08:10:10.197Z,34.31
2023-05-21T08:11:12.018Z,34.36
2023-05-21T08:12:16.585Z,34.75
2023-05-21T08:13:18.530Z,34.53
2023-05-21T08:14:20.361Z,34.35
2023-05-21T08:15:22.770Z,34.57
2023-05-21T08:16:24.816Z,34.24
2023-05-21T08:17:28.468Z,34.36
2023-05-21T08:18:30.664Z,33.98
2023-05-21T08:19:33.006Z,34.13
2023-05-21T08:20:35.111Z,34.31
2023-05-21T08:21:37.311Z,34.00
2023-05-21T08:22:39.464Z,34.06
2023-05-21T08:23:41.293Z,34.23
2023-05-21T08:24:43.364Z,34.49
2023-05-21T08:25:45.245Z,34.43
2023-05-21T08:26:48.545Z,34.35
2023-05-21T08:27:52.344Z,34.60
2023-05-21T08:28:54.651Z,34.52
2023-05-21T08:29:56.608Z,34.65
2023-05-21T08:30:58.757Z,34.55
2023-05-21T08:32:01.016Z,34.25
2023-05-21T08:33:02.939Z,34.56
2023-05-21T08:34:04.852Z,34.29
2023-05-21T08:35:08.706Z,34.45
2023-05-21T08:36:10.673Z,34.28
2023-05-21T08:37:12.530Z,34.27
2023-05-21T08:38:16.892Z,34.13
2023-05-21T08:39:18.770Z,34.24
2023-05-21T08:40:20.978Z,34.32
2023-05-21T08:41:24.598Z,34.12
2023-05-21T08:42:47.300Z,34.41
2023-05-21T08:43:58.356Z,34.50
2023-05-21T08:45:01.190Z,34.45
2023-05-21T08:46:05.011Z,34.62
2023-05-21T08:47:13.131Z,34.65
2023-05-21T08:48:17.841Z,34.51
2023-05-21T08:49:28.661Z,34.41
2023-05-21T08:50:32.797Z,34.42
2023-05-21T08:51:34.974Z,34.41
2023-05-21T08:52:37.403Z,34.42
2023-05-21T08:53:39.343Z,34.46
2023-05-21T08:54:42.058Z,34.57
2023-05-21T08:55:44.770Z,34.41
2023-05-21T08:56:49.932Z,34.67
2023-05-21T08:57:55.054Z,34.62
2023-05-21T08:58:58.721Z,34.70
2023-05-21T09:00:02.027Z,34.80
2023-05-21T09:01:05.391Z,34.74
2023-05-21T09:02:08.854Z,34.65
2023-05-21T09:03:13.737Z,34.47
2023-05-21T09:04:21.284Z,34.40
2023-05-21T09:05:25.236Z,34.48
2023-05-21T09:06:27.756Z,34.44
2023-05-21T09:07:31.768Z,34.38
2023-05-21T09:08:39.051Z,34.40
2023-05-21T09:09:54.163Z,34.25
2023-05-21T09:10:56.158Z,34.18
2023-05-21T09:11:58.018Z,34.47
2023-05-21T09:13:00.850Z,34.13
2023-05-21T09:14:04.062Z,34.50
2023-05-21T09:15:07.638Z,34.53
2023-05-21T09:16:11.019Z,34.33
2023-05-21T09:17:15.480Z,34.41
2023-05-21T09:18:17.511Z,34.27
2023-05-21T09:19:23.004Z,34.20
2023-05-21T09:20:26.858Z,34.15
2023-05-21T09:21:31.421Z,33.97
2023-05-21T09:22:33.697Z,34.19
2023-05-21T09:23:35.670Z,34.33
2023-05-21T09:24:37.549Z,34.23
2023-05-21T09:25:40.007Z,34.14
2023-05-21T09:26:45.128Z,34.34
2023-05-21T09:27:47.211Z,34.20
2023-05-21T09:28:49.155Z,34.15
2023-05-21T09:29:51.373Z,34.33
2023-05-21T09:30:56.169Z,33.88
2023-05-21T09:31:59.305Z,33.92
2023-05-21T09:33:01.710Z,33.91
2023-05-21T09:34:03.806Z,33.84
2023-05-21T09:35:10.782Z,33.83
2023-05-21T09:36:13.097Z,33.68
2023-05-21T09:37:26.530Z,33.85
2023-05-21T09:38:30.299Z,33.69
2023-05-21T09:39:32.093Z,33.56
2023-05-21T09:40:36.026Z,33.85
2023-05-21T09:41:38.603Z,33.54
2023-05-21T09:42:41.907Z,33.90
2023-05-21T09:43:44.769Z,33.57
2023-05-21T09:44:48.107Z,33.72
2023-05-21T09:45:55.425Z,34.01
2023-05-21T09:46:59.636Z,33.96
2023-05-21T09:48:01.675Z,33.53
2023-05-21T09:49:03.567Z,33.67
2023-05-21T09:50:06.642Z,33.48
2023-05-21T09:51:19.839Z,34.00
2023-05-21T09:52:28.516Z,34.11
2023-05-21T09:53:30.409Z,33.58
2023-05-21T09:54:34.295Z,33.65
2023-05-21T09:55:36.691Z,33.89
2023-05-21T09:56:40.466Z,33.86
2023-05-21T09:57:43.591Z,33.80
2023-05-21T09:58:46.281Z,33.46
2023-05-21T09:59:50.899Z,33.67
2023-05-21T10:00:53.547Z,33.74
2023-05-21T10:01:55.628Z,33.79
2023-05-21T10:03:01.571Z,33.82
2023-05-21T10:04:08.405Z,33.73
2023-05-21T10:05:14.615Z,33.81
2023-05-21T10:06:19.152Z,33.57
2023-05-21T10:07:26.405Z,33.71
2023-05-21T10:08:35.977Z,33.75
2023-05-21T10:09:38.960Z,33.85
2023-05-21T10:10:43.721Z,33.39
2023-05-21T10:11:49.631Z,33.33
2023-05-21T10:13:09.317Z,33.20
2023-05-21T10:14:22.509Z,33.59
2023-05-21T10:15:26.379Z,33.60
2023-05-21T10:16:32.785Z,33.23
2023-05-21T10:17:35.558Z,33.55
2023-05-21T10:18:40.017Z,33.62
2023-05-21T10:19:43.875Z,33.53
2023-05-21T10:20:46.725Z,33.54
2023-05-21T10:21:51.949Z,33.43
2023-05-21T10:22:55.869Z,33.53
2023-05-21T10:23:58.559Z,33.34
2023-05-21T10:25:03.683Z,33.41
2023-05-21T10:26:08.195Z,33.21
2023-05-21T10:27:11.681Z,33.14
2023-05-21T10:28:18.279Z,33.51
2023-05-21T10:29:22.945Z,33.07
2023-05-21T10:30:25.643Z,33.37
2023-05-21T10:31:28.590Z,33.26
2023-05-21T10:32:32.185Z,33.29
2023-05-21T10:33:36.528Z,33.07
2023-05-21T10:34:38.965Z,32.92
2023-05-21T10:35:41.174Z,33.03
2023-05-21T10:36:44.971Z,33.43
2023-05-21T10:37:47.167Z,33.01
2023-05-21T10:38:49.228Z,33.01
2023-05-21T10:39:52.349Z,33.26
2023-05-21T10:40:55.808Z,33.19
2023-05-21T10:42:38.179Z,32.87
2023-05-21T10:44:26.685Z,33.17
2023-05-21T10:46:05.761Z,32.81
2023-05-21T10:47:58.854Z,32.79
2023-05-21T10:49:50.982Z,32.73
2023-05-21T10:51:36.975Z,33.10
2023-05-21T10:53:17.121Z,33.03
2023-05-21T10:55:14.749Z,32.78
2023-05-21T10:56:46.697Z,33.12
2023-05-21T10:58:15.185Z,32.70
2023-05-21T10:59:46.728Z,32.71
2023-05-21T11:00:50.094Z,32.85
2023-05-21T11:01:53.196Z,33.05
2023-05-21T11:02:56.029Z,32.83
2023-05-21T11:03:58.326Z,32.89
2023-05-21T11:05:02.080Z,33.28
2023-05-21T11:06:06.592Z,33.32
2023-05-21T11:07:09.150Z,33.10
2023-05-21T11:08:31.666Z,32.71
2023-05-21T11:09:33.841Z,32.80
2023-05-21T11:10:41.094Z,32.85
2023-05-21T11:12:00.281Z,32.83
2023-05-21T11:13:19.844Z,32.86
2023-05-21T11:14:39.566Z,32.71
2023-05-21T11:16:05.262Z,32.98
2023-05-21T11:17:10.291Z,32.79
2023-05-21T11:18:14.420Z,32.78
2023-05-21T11:19:20.073Z,32.53
2023-05-21T11:20:34.603Z,33.13
2023-05-21T11:21:36.729Z,32.64
2023-05-21T11:22:38.851Z,32.95
2023-05-21T11:24:01.328Z,32.92
2023-05-21T11:25:04.084Z,32.58
2023-05-21T11:26:07.242Z,32.57
2023-05-21T11:27:09.711Z,32.60
2023-05-21T11:28:11.567Z,32.45
2023-05-21T11:29:14.642Z,32.58
2023-05-21T11:30:19.619Z,32.93
2023-05-21T11:31:30.387Z,32.84
2023-05-21T11:32:32.396Z,32.62
2023-05-21T11:33:34.354Z,33.09
2023-05-21T11:34:48.939Z,32.42
2023-05-21T11:35:54.355Z,32.78
2023-05-21T11:37:23.355Z,33.00
2023-05-21T11:38:31.128Z,33.08
2023-05-21T11:39:40.342Z,32.79
2023-05-21T11:40:55.189Z,32.52
2023-05-21T11:42:01.731Z,32.84
2023-05-21T11:43:06.189Z,32.86
2023-05-21T11:44:09.242Z,32.76
2023-05-21T11:45:11.363Z,32.80
2023-05-21T11:46:15.011Z,32.54
2023-05-21T11:47:19.065Z,33.11
2023-05-21T11:48:27.364Z,32.53
2023-05-21T11:49:31.559Z,32.57
2023-05-21T11:50:34.747Z,32.49
2023-05-21T11:51:37.178Z,32.63
2023-05-21T11:52:40.490Z,32.57
2023-05-21T11:53:44.326Z,32.43
2023-05-21T11:54:55.625Z,32.72
2023-05-21T11:56:00.073Z,32.46
2023-05-21T11:57:06.011Z,32.74
2023-05-21T11:58:09.273Z,32.48
2023-05-21T11:59:17.995Z,32.86
2023-05-21T12:00:21.610Z,33.04
2023-05-21T12:01:24.937Z,32.72
2023-05-21T12:02:32.112Z,32.32
2023-05-21T12:03:37.364Z,32.83
2023-05-21T12:04:39.430Z,32.91
2023-05-21T12:05:49.045Z,32.54
2023-05-21T12:06:51.949Z,32.94
2023-05-21T12:07:54.972Z,32.56
2023-05-21T12:08:58.266Z,32.79
2023-05-21T12:10:01.330Z,32.71
2023-05-21T12:11:03.357Z,32.73
2023-05-21T12:12:06.548Z,32.38
2023-05-21T12:13:08.719Z,32.43
2023-05-21T12:14:11.393Z,32.79
2023-05-21T12:15:13.844Z,32.44
2023-05-21T12:16:15.862Z,32.83
2023-05-21T12:17:20.258Z,32.91
2023-05-21T12:18:22.537Z,32.96
2023-05-21T12:19:24.659Z,32.82
2023-05-21T12:20:28.438Z,32.30
2023-05-21T12:21:31.537Z,32.37
2023-05-21T12:22:33.392Z,32.59
2023-05-21T12:23:36.363Z,32.74
2023-05-21T12:24:39.453Z,33.00
2023-05-21T12:25:41.828Z,32.75
2023-05-21T12:26:48.139Z,32.22
2023-05-21T12:27:57.911Z,32.47
2023-05-21T12:29:00.181Z,32.28
2023-05-21T12:30:02.347Z,32.88
2023-05-21T12:31:04.405Z,32.89
2023-05-21T12:32:09.948Z,32.42
2023-05-21T12:33:12.182Z,32.53
2023-05-21T12:34:15.551Z,32.81
2023-05-21T12:35:23.070Z,32.68
2023-05-21T12:36:34.267Z,32.61
2023-05-21T12:37:36.226Z,32.41
2023-05-21T12:38:38.112Z,32.38
2023-05-21T12:39:45.394Z,32.41
2023-05-21T12:40:47.432Z,32.29
2023-05-21T12:41:54.632Z,32.43
2023-05-21T12:42:56.695Z,32.89
2023-05-21T12:43:58.717Z,32.74
2023-05-21T12:45:06.307Z,32.56
2023-05-21T12:46:08.398Z,32.25
2023-05-21T12:47:11.875Z,32.48
2023-05-21T12:48:13.817Z,32.50
2023-05-21T12:49:48.037Z,32.58
2023-05-21T12:50:52.154Z,32.31
2023-05-21T12:51:56.987Z,32.29
2023-05-21T12:52:59.209Z,32.29
2023-05-21T12:54:02.222Z,32.54
2023-05-21T12:55:06.557Z,32.20
2023-05-21T12:56:15.953Z,32.61
2023-05-21T12:57:23.525Z,32.38
2023-05-21T12:58:25.601Z,32.30
2023-05-21T12:59:27.588Z,32.38
2023-05-21T13:00:29.616Z,32.59
2023-05-21T13:01:31.604Z,32.47
2023-05-21T13:02:40.784Z,32.33
2023-05-21T13:03:43.255Z,32.69
2023-05-21T13:04:45.484Z,32.86
2023-05-21T13:05:47.844Z,32.36
2023-05-21T13:06:50.096Z,32.40
2023-05-21T13:07:52.085Z,32.81
2023-05-21T13:08:55.752Z,32.24
2023-05-21T13:09:58.919Z,32.79
2023-05-21T13:11:04.785Z,32.35
2023-05-21T13:12:07.007Z,32.53
2023-05-21T13:13:09.076Z,32.14
2023-05-21T13:14:11.126Z,32.32
2023-05-21T13:15:13.214Z,32.68
2023-05-21T13:16:15.389Z,32.53
2023-05-21T13:17:18.691Z,32.24
2023-05-21T13:18:21.743Z,32.48
2023-05-21T13:19:23.665Z,32.57
2023-05-21T13:20:27.860Z,32.58
2023-05-21T13:21:29.817Z,32.12
2023-05-21T13:22:31.968Z,32.46
2023-05-21T13:23:33.843Z,32.45
2023-05-21T13:24:37.022Z,32.69
2023-05-21T13:25:39.252Z,32.04
2023-05-21T13:26:41.448Z,32.03
2023-05-21T13:27:44.636Z,32.63
2023-05-21T13:28:46.766Z,32.21
2023-05-21T13:29:48.632Z,32.22
2023-05-21T13:30:53.099Z,32.49
2023-05-21T13:31:54.919Z,32.07
2023-05-21T13:32:56.844Z,32.09
2023-05-21T13:33:58.758Z,32.00
2023-05-21T13:35:01.118Z,32.55
2023-05-21T13:36:04.329Z,32.46
2023-05-21T13:37:06.752Z,32.61
2023-05-21T13:38:08.571Z,32.14
2023-05-21T13:39:10.641Z,32.42
2023-05-21T13:40:15.643Z,32.00
2023-05-21T13:41:17.884Z,31.93
2023-05-21T13:42:21.296Z,32.39
2023-05-21T13:43:23.324Z,31.97
2023-05-21T13:44:25.250Z,32.58
2023-05-21T13:45:29.249Z,32.18